createdAt,value
2023-01-12T00:00:31.404Z,9.02
2023-01-12T00:02:59.201Z,9.63
2023-01-12T00:05:27.179Z,9.75
2023-01-12T00:07:54.995Z,10.57
2023-01-12T00:10:22.729Z,10.00
2023-01-12T00:12:50.556Z,7.95
2023-01-12T00:15:38.217Z,9.55
2023-01-12T00:18:06.091Z,9.45
2023-01-12T00:20:33.918Z,7.57
2023-01-12T00:23:01.894Z,8.00
2023-01-12T00:25:29.564Z,7.43
2023-01-12T00:27:57.279Z,8.75
2023-01-12T00:30:24.986Z,8.38
2023-01-12T00:32:52.666Z,7.20
2023-01-12T00:35:20.554Z,7.80
2023-01-12T00:37:48.483Z,8.32
2023-01-12T00:40:16.864Z,9.68
2023-01-12T00:43:03.743Z,8.88
2023-01-12T00:45:31.413Z,7.13
2023-01-12T00:47:59.352Z,8.07
2023-01-12T00:50:27.596Z,9.43
2023-01-12T00:52:55.296Z,8.30
2023-01-12T00:55:22.980Z,10.23
2023-01-12T00:57:50.879Z,6.85
2023-01-12T01:00:19.034Z,7.13
2023-01-12T01:02:47.107Z,6.47
2023-01-12T01:05:14.986Z,9.00
2023-01-12T01:07:42.717Z,7.55
2023-01-12T01:10:11.749Z,6.55
2023-01-12T01:12:40.395Z,7.28
2023-01-12T01:15:09.174Z,6.68
2023-01-12T01:17:37.042Z,7.00
2023-01-12T01:20:05.344Z,6.75
2023-01-12T01:22:33.141Z,8.88
2023-01-12T01:25:00.894Z,6.72
2023-01-12T01:27:28.715Z,7.13
2023-01-12T01:29:56.378Z,7.78
2023-01-12T01:32:24.447Z,6.65
2023-01-12T01:34:52.509Z,6.15
2023-01-12T01:37:22.171Z,6.93
2023-01-12T01:39:50.068Z,7.57
2023-01-12T01:42:30.583Z,5.95
2023-01-12T01:45:01.485Z,6.63
2023-01-12T01:47:36.712Z,7.32
2023-01-12T01:50:10.902Z,7.50
2023-01-12T01:52:44.971Z,7.47
2023-01-12T01:55:48.422Z,5.78
2023-01-12T01:58:38.833Z,6.53
2023-01-12T02:01:07.524Z,6.03
2023-01-12T02:03:37.790Z,6.25
2023-01-12T02:06:07.899Z,5.00
2023-01-12T02:08:44.912Z,6.63
2023-01-12T02:11:32.138Z,6.13
2023-01-12T02:14:18.331Z,7.63
2023-01-12T02:16:57.253Z,6.15
2023-01-12T02:20:00.329Z,6.25
2023-01-12T02:22:49.440Z,6.78
2023-01-12T02:25:42.804Z,7.18
2023-01-12T02:28:38.345Z,7.20
2023-01-12T02:31:32.735Z,6.95
2023-01-12T02:34:26.879Z,6.68
2023-01-12T02:37:25.466Z,5.97
2023-01-12T02:39:59.114Z,5.97
2023-01-12T02:42:42.861Z,5.88
2023-01-12T02:46:02.131Z,5.18
2023-01-12T02:48:52.054Z,6.55
2023-01-12T02:51:25.716Z,6.20
2023-01-12T02:54:01.377Z,8.07
2023-01-12T02:56:47.846Z,9.02
2023-01-12T02:59:28.224Z,6.45
2023-01-12T03:02:09.273Z,6.82
2023-01-12T03:04:37.374Z,5.57
2023-01-12T03:07:05.034Z,6.63
2023-01-12T03:09:47.973Z,6.93
2023-01-12T03:12:22.516Z,7.43
2023-01-12T03:14:53.656Z,8.13
2023-01-12T03:17:31.279Z,7.32
2023-01-12T03:20:15.459Z,6.13
2023-01-12T03:22:45.697Z,6.47
2023-01-12T03:25:17.929Z,5.80
2023-01-12T03:27:50.665Z,8.20
2023-01-12T03:30:25.187Z,7.40
2023-01-12T03:32:53.206Z,7.10
2023-01-12T03:35:27.460Z,5.78
2023-01-12T03:38:05.230Z,6.78
2023-01-12T03:40:39.562Z,6.82
2023-01-12T03:43:27.166Z,8.02
2023-01-12T03:46:07.051Z,7.28
2023-01-12T03:48:43.153Z,6.93
2023-01-12T03:51:25.655Z,6.00
2023-01-12T03:53:56.498Z,5.28
2023-01-12T03:56:28.333Z,8.20
2023-01-12T03:58:56.330Z,7.55
2023-01-12T04:01:24.157Z,7.63
2023-01-12T04:03:52.225Z,6.93
2023-01-12T04:06:20.021Z,7.25
2023-01-12T04:08:47.717Z,7.00
2023-01-12T04:11:34.169Z,6.90
2023-01-12T04:14:01.969Z,9.90
2023-01-12T04:16:29.778Z,5.55
2023-01-12T04:18:57.687Z,7.82
2023-01-12T04:21:45.672Z,7.75
2023-01-12T04:24:13.499Z,6.57
2023-01-12T04:26:41.385Z,7.82
2023-01-12T04:29:09.169Z,5.78
2023-01-12T04:31:37.163Z,5.57
2023-01-12T04:34:05.075Z,4.55
2023-01-12T04:36:32.866Z,6.70
2023-01-12T04:39:01.805Z,7.22
2023-01-12T04:41:29.605Z,6.28
2023-01-12T04:43:57.355Z,5.20
2023-01-12T04:46:25.329Z,5.90
2023-01-12T04:48:53.151Z,6.30
2023-01-12T04:51:20.943Z,5.95
2023-01-12T04:53:49.426Z,5.65
2023-01-12T04:56:18.435Z,5.47
2023-01-12T04:58:46.375Z,5.82
2023-01-12T05:01:19.942Z,4.95
2023-01-12T05:03:48.106Z,6.22
2023-01-12T05:06:15.875Z,8.00
2023-01-12T05:09:03.037Z,5.72
2023-01-12T05:11:30.818Z,6.00
2023-01-12T05:13:58.817Z,5.68
2023-01-12T05:16:27.574Z,5.25
2023-01-12T05:18:55.537Z,4.75
2023-01-12T05:21:24.685Z,5.78
2023-01-12T05:23:52.996Z,5.45
2023-01-12T05:26:21.219Z,6.32
2023-01-12T05:28:50.388Z,5.88
2023-01-12T05:31:19.740Z,6.05
2023-01-12T05:33:48.448Z,4.88
2023-01-12T05:36:17.440Z,6.50
2023-01-12T05:38:45.355Z,7.38
2023-01-12T05:41:14.684Z,9.38
2023-01-12T05:43:52.704Z,7.05
2023-01-12T05:46:26.317Z,8.85
2023-01-12T05:48:56.059Z,7.53
2023-01-12T05:51:26.374Z,8.10
2023-01-12T05:53:55.447Z,7.15
2023-01-12T05:56:28.511Z,9.18
2023-01-12T05:58:58.924Z,8.55
2023-01-12T06:01:28.422Z,12.63
2023-01-12T06:03:59.451Z,13.32
2023-01-12T06:06:31.546Z,11.60
2023-01-12T06:09:01.159Z,8.45
2023-01-12T06:11:48.205Z,9.50
2023-01-12T06:14:18.477Z,7.65
2023-01-12T06:16:46.471Z,8.15
2023-01-12T06:19:14.292Z,8.70
2023-01-12T06:21:42.124Z,8.43
2023-01-12T06:24:09.970Z,6.72
2023-01-12T06:26:37.827Z,19.48
2023-01-12T06:29:07.306Z,27.33
2023-01-12T06:31:35.187Z,31.75
2023-01-12T06:34:03.139Z,20.98
2023-01-12T06:36:31.045Z,19.35
2023-01-12T06:38:59.203Z,19.25
2023-01-12T06:41:45.520Z,17.02
2023-01-12T06:44:13.637Z,14.38
2023-01-12T06:46:41.648Z,11.90
2023-01-12T06:49:09.485Z,7.93
2023-01-12T06:51:37.349Z,10.07
2023-01-12T06:54:05.447Z,9.20
2023-01-12T06:56:33.364Z,8.05
2023-01-12T06:59:01.364Z,10.93
2023-01-12T07:01:29.230Z,8.85
2023-01-12T07:03:57.212Z,8.30
2023-01-12T07:06:25.067Z,9.43
2023-01-12T07:08:52.888Z,8.30
2023-01-12T07:11:20.523Z,6.20
2023-01-12T07:13:48.644Z,6.97
2023-01-12T07:16:16.584Z,9.50
2023-01-12T07:18:44.647Z,8.07
2023-01-12T07:21:13.844Z,9.43
2023-01-12T07:23:44.353Z,9.32
2023-01-12T07:26:13.059Z,9.13
2023-01-12T07:28:41.313Z,8.10
2023-01-12T07:31:09.817Z,12.90
2023-01-12T07:33:38.669Z,11.23
2023-01-12T07:36:06.774Z,9.88
2023-01-12T07:38:35.113Z,6.07
2023-01-12T07:41:03.495Z,8.35
2023-01-12T07:43:33.840Z,7.70
2023-01-12T07:46:01.872Z,7.53
2023-01-12T07:48:30.935Z,7.40
2023-01-12T07:50:59.562Z,16.23
2023-01-12T07:53:27.402Z,6.55
2023-01-12T07:55:55.279Z,8.25
2023-01-12T07:58:23.278Z,5.90
2023-01-12T08:00:51.108Z,9.75
2023-01-12T08:03:18.799Z,6.28
2023-01-12T08:05:46.619Z,8.20
2023-01-12T08:08:14.343Z,10.93
2023-01-12T08:10:44.033Z,9.88
2023-01-12T08:13:13.202Z,8.43
2023-01-12T08:15:46.378Z,9.32
2023-01-12T08:18:24.085Z,10.50
2023-01-12T08:20:54.102Z,9.73
2023-01-12T08:23:35.829Z,9.98
2023-01-12T08:26:10.569Z,9.02
2023-01-12T08:28:45.815Z,7.88
2023-01-12T08:33:54.623Z,11.95
2023-01-12T08:36:23.537Z,10.75
2023-01-12T08:38:52.057Z,11.82
2023-01-12T08:41:36.791Z,10.10
2023-01-12T08:44:09.972Z,8.50
2023-01-12T08:46:40.349Z,8.05
2023-01-12T08:49:11.565Z,7.68
2023-01-12T08:51:46.069Z,9.57
2023-01-12T08:54:16.540Z,11.07
2023-01-12T08:56:45.268Z,8.23
2023-01-12T08:59:13.785Z,7.55
2023-01-12T09:01:42.173Z,8.05
2023-01-12T09:04:09.978Z,6.10
2023-01-12T09:06:41.390Z,6.05
2023-01-12T09:09:15.638Z,8.32
2023-01-12T09:11:45.220Z,16.10
2023-01-12T09:14:14.551Z,11.10
2023-01-12T09:16:42.701Z,10.30
2023-01-12T09:19:10.705Z,12.07
2023-01-12T09:21:41.229Z,8.10
2023-01-12T09:24:10.756Z,8.15
2023-01-12T09:26:43.899Z,10.57
2023-01-12T09:29:13.544Z,9.48
2023-01-12T09:31:43.770Z,11.00
2023-01-12T09:34:12.607Z,9.90
2023-01-12T09:36:41.291Z,6.75
2023-01-12T09:39:15.421Z,6.53
2023-01-12T09:42:07.996Z,8.85
2023-01-12T09:45:00.968Z,9.27
2023-01-12T09:47:40.433Z,9.15
2023-01-12T09:50:16.583Z,6.53
2023-01-12T09:52:57.967Z,6.78
2023-01-12T09:55:29.894Z,7.32
2023-01-12T09:58:10.524Z,7.65
2023-01-12T10:00:38.944Z,8.90
2023-01-12T10:03:27.300Z,8.30
2023-01-12T10:06:02.800Z,12.35
2023-01-12T10:08:30.790Z,13.27
2023-01-12T10:11:35.665Z,11.32
2023-01-12T10:14:34.969Z,11.27
2023-01-12T10:17:25.733Z,8.23
2023-01-12T10:20:05.368Z,12.68
2023-01-12T10:22:40.103Z,10.25
2023-01-12T10:25:24.217Z,9.32
2023-01-12T10:27:57.819Z,6.75
2023-01-12T10:30:34.577Z,10.55
2023-01-12T10:33:30.504Z,12.18
2023-01-12T10:36:32.034Z,10.65
2023-01-12T10:39:05.228Z,14.07
2023-01-12T10:41:34.961Z,13.85
2023-01-12T10:44:16.849Z,15.80
2023-01-12T10:47:08.671Z,12.50
2023-01-12T10:49:38.561Z,7.90
2023-01-12T10:52:19.823Z,8.00
2023-01-12T10:54:49.514Z,7.95
2023-01-12T10:57:23.487Z,6.47
2023-01-12T10:59:55.053Z,6.82
2023-01-12T11:02:25.895Z,8.18
2023-01-12T11:04:54.802Z,7.43
2023-01-12T11:07:27.488Z,9.13
2023-01-12T11:09:58.571Z,10.48
2023-01-12T11:12:35.338Z,8.82
2023-01-12T11:15:10.765Z,17.98
2023-01-12T11:17:39.400Z,12.90
2023-01-12T11:20:35.172Z,10.48
2023-01-12T11:23:05.538Z,12.63
2023-01-12T11:25:53.747Z,13.15
2023-01-12T11:28:31.248Z,14.75
2023-01-12T11:31:01.249Z,12.63
2023-01-12T11:33:40.212Z,9.93
2023-01-12T11:36:16.980Z,10.68
2023-01-12T11:38:51.033Z,12.75
2023-01-12T11:41:27.114Z,9.82
2023-01-12T11:44:21.091Z,9.52
2023-01-12T11:46:59.799Z,9.32
2023-01-12T11:49:42.462Z,8.10
2023-01-12T11:52:13.691Z,9.07
2023-01-12T11:54:42.242Z,8.35
2023-01-12T11:57:24.559Z,14.50
2023-01-12T12:00:14.002Z,8.95
2023-01-12T12:02:45.781Z,8.98
2023-01-12T12:05:22.670Z,8.50
2023-01-12T12:08:06.087Z,10.75
2023-01-12T12:10:54.304Z,12.05
2023-01-12T12:13:28.246Z,19.98
2023-01-12T12:16:16.034Z,15.82
2023-01-12T12:21:36.857Z,10.50
2023-01-12T12:24:10.654Z,10.40
2023-01-12T12:26:49.821Z,11.70
2023-01-12T12:29:54.959Z,8.93
2023-01-12T12:32:35.399Z,11.32
2023-01-12T12:35:27.080Z,7.60
2023-01-12T12:38:13.547Z,7.20
2023-01-12T12:41:40.735Z,7.63
2023-01-12T12:44:55.721Z,9.25
2023-01-12T12:47:49.130Z,8.60
2023-01-12T12:50:44.333Z,7.90
2023-01-12T12:53:30.361Z,6.20
2023-01-12T12:56:01.964Z,7.47
2023-01-12T12:58:44.813Z,8.20
2023-01-12T13:01:22.580Z,10.73
2023-01-12T13:03:51.792Z,9.77
2023-01-12T13:06:49.643Z,10.93
2023-01-12T13:09:17.734Z,13.57
2023-01-12T13:11:54.540Z,16.25
2023-01-12T13:14:40.190Z,17.27
2023-01-12T13:17:20.439Z,14.25
2023-01-12T13:20:01.461Z,16.02
2023-01-12T13:22:46.113Z,18.88
2023-01-12T13:25:20.662Z,17.88
2023-01-12T13:28:01.292Z,15.20
2023-01-12T13:30:29.107Z,12.38
2023-01-12T13:33:15.621Z,12.82
2023-01-12T13:35:46.586Z,10.27
2023-01-12T13:38:44.017Z,11.00
2023-01-12T13:41:34.815Z,9.55
2023-01-12T13:44:04.196Z,10.27
2023-01-12T13:46:41.189Z,13.40
2023-01-12T13:49:33.618Z,14.45
2023-01-12T13:52:05.096Z,16.27
2023-01-12T13:54:34.171Z,15.43
2023-01-12T13:57:10.927Z,13.52
2023-01-12T13:59:38.814Z,13.93
2023-01-12T14:02:18.126Z,13.13
2023-01-12T14:04:59.541Z,18.85
2023-01-12T14:07:30.339Z,18.85
2023-01-12T14:10:14.621Z,14.93
2023-01-12T14:13:01.473Z,13.70
2023-01-12T14:15:57.947Z,11.88
2023-01-12T14:18:28.380Z,15.70
2023-01-12T14:20:58.724Z,13.10
2023-01-12T14:23:26.599Z,13.43
2023-01-12T14:26:27.357Z,10.27
2023-01-12T14:28:55.035Z,12.07
2023-01-12T14:31:32.958Z,13.52
2023-01-12T14:34:04.662Z,15.27
2023-01-12T14:36:37.499Z,12.93
2023-01-12T14:39:10.148Z,12.43
2023-01-12T14:41:56.448Z,11.70
2023-01-12T14:44:44.857Z,9.40
2023-01-12T14:47:28.378Z,12.43
2023-01-12T14:49:56.455Z,12.25
2023-01-12T14:52:33.325Z,10.68
2023-01-12T14:55:17.970Z,11.63
2023-01-12T14:57:58.935Z,10.38
2023-01-12T15:00:33.658Z,11.82
2023-01-12T15:03:08.135Z,10.77
2023-01-12T15:05:37.627Z,8.25
2023-01-12T15:08:08.615Z,12.55
2023-01-12T15:10:36.356Z,9.82
2023-01-12T15:13:23.148Z,11.57
2023-01-12T15:16:11.696Z,12.52
2023-01-12T15:18:59.135Z,8.52
2023-01-12T15:21:46.555Z,12.95
2023-01-12T15:24:46.071Z,9.70
2023-01-12T15:27:16.718Z,8.55
2023-01-12T15:29:45.054Z,9.73
2023-01-12T15:32:51.636Z,9.60
2023-01-12T15:35:24.730Z,10.38
2023-01-12T15:37:55.019Z,14.40
2023-01-12T15:40:24.642Z,9.13
2023-01-12T15:42:53.507Z,9.50
2023-01-12T15:45:48.261Z,7.55
2023-01-12T15:48:16.185Z,9.80
2023-01-12T15:50:47.867Z,9.38
2023-01-12T15:53:22.158Z,10.45
2023-01-12T15:55:50.005Z,10.90
2023-01-12T15:58:19.732Z,9.40
2023-01-12T16:00:47.798Z,9.52
2023-01-12T16:03:34.569Z,10.57
2023-01-12T16:06:03.550Z,9.68
2023-01-12T16:08:31.798Z,11.55
2023-01-12T16:11:14.549Z,10.00
2023-01-12T16:13:42.243Z,14.65
2023-01-12T16:16:16.320Z,12.32
2023-01-12T16:18:44.778Z,15.77
2023-01-12T16:21:17.855Z,12.93
2023-01-12T16:23:46.590Z,10.00
2023-01-12T16:26:14.570Z,11.63
2023-01-12T16:28:42.842Z,11.30
2023-01-12T16:31:14.076Z,13.85
2023-01-12T16:33:43.543Z,9.25
2023-01-12T16:36:13.603Z,11.25
2023-01-12T16:38:42.046Z,9.00
2023-01-12T16:41:15.876Z,11.40
2023-01-12T16:43:43.730Z,11.65
2023-01-12T16:46:12.652Z,10.45
2023-01-12T16:48:42.330Z,11.18
2023-01-12T16:51:15.601Z,11.05
2023-01-12T16:53:43.845Z,11.63
2023-01-12T16:56:13.581Z,12.60
2023-01-12T16:58:48.915Z,14.77
2023-01-12T17:01:22.688Z,11.10
2023-01-12T17:03:51.371Z,11.00
2023-01-12T17:06:21.395Z,11.70
2023-01-12T17:08:49.532Z,11.23
2023-01-12T17:11:21.266Z,13.15
2023-01-12T17:13:57.190Z,10.82
2023-01-12T17:16:30.758Z,13.48
2023-01-12T17:18:58.870Z,10.68
2023-01-12T17:21:27.590Z,11.55
2023-01-12T17:23:55.929Z,9.68
2023-01-12T17:26:24.229Z,11.48
2023-01-12T17:28:58.618Z,13.63
2023-01-12T17:31:26.547Z,13.02
2023-01-12T17:33:54.337Z,10.57
2023-01-12T17:36:22.280Z,11.88
2023-01-12T17:38:51.141Z,14.73
2023-01-12T17:41:37.559Z,19.13
2023-01-12T17:44:07.218Z,17.92
2023-01-12T17:46:35.779Z,14.77
2023-01-12T17:49:06.439Z,15.07
2023-01-12T17:51:34.896Z,13.73
2023-01-12T17:54:04.554Z,12.00
2023-01-12T17:56:33.876Z,7.95
2023-01-12T17:59:02.228Z,9.40
2023-01-12T18:01:32.425Z,9.07
2023-01-12T18:04:01.245Z,9.35
2023-01-12T18:06:29.317Z,14.35
2023-01-12T18:08:59.600Z,12.00
2023-01-12T18:11:31.439Z,11.75
2023-01-12T18:14:00.871Z,13.05
2023-01-12T18:16:29.501Z,19.92
2023-01-12T18:18:59.481Z,16.67
2023-01-12T18:21:27.880Z,12.52
2023-01-12T18:23:57.025Z,14.02
2023-01-12T18:26:28.116Z,13.45
2023-01-12T18:28:57.393Z,12.90
2023-01-12T18:31:29.120Z,15.30
2023-01-12T18:34:18.369Z,17.10
2023-01-12T18:36:46.514Z,19.20
2023-01-12T18:39:23.291Z,20.95
2023-01-12T18:42:09.510Z,20.60
2023-01-12T18:44:38.766Z,19.13
2023-01-12T18:47:25.477Z,19.20
2023-01-12T18:49:57.690Z,16.98
2023-01-12T18:52:44.557Z,15.18
2023-01-12T18:55:12.434Z,16.27
2023-01-12T18:57:40.554Z,15.48
2023-01-12T19:00:16.206Z,15.65
2023-01-12T19:02:44.964Z,16.60
2023-01-12T19:05:23.516Z,15.90
2023-01-12T19:08:00.234Z,18.30
2023-01-12T19:10:30.149Z,16.27
2023-01-12T19:13:17.880Z,19.70
2023-01-12T19:16:04.534Z,13.77
2023-01-12T19:18:35.256Z,18.42
2023-01-12T19:21:26.829Z,18.15
2023-01-12T19:24:17.209Z,29.95
2023-01-12T19:27:03.363Z,29.75
2023-01-12T19:29:40.448Z,22.67
2023-01-12T19:34:37.672Z,18.33
2023-01-12T19:37:06.204Z,15.70
2023-01-12T19:40:00.513Z,16.08
2023-01-12T19:42:51.021Z,15.73
2023-01-12T19:45:20.228Z,10.65
2023-01-12T19:47:49.099Z,12.73
2023-01-12T19:50:16.949Z,12.68
2023-01-12T19:52:46.139Z,13.13
2023-01-12T19:55:17.732Z,18.45
2023-01-12T19:57:45.921Z,20.50
2023-01-12T20:00:17.250Z,20.38
2023-01-12T20:02:46.255Z,15.73
2023-01-12T20:05:22.101Z,12.07
2023-01-12T20:07:55.069Z,15.27
2023-01-12T20:10:26.683Z,14.82
2023-01-12T20:12:55.084Z,13.18
2023-01-12T20:15:22.973Z,13.70
2023-01-12T20:17:51.348Z,24.15
2023-01-12T20:20:20.677Z,23.17
2023-01-12T20:22:50.146Z,27.20
2023-01-12T20:25:20.552Z,17.27
2023-01-12T20:27:49.879Z,19.80
2023-01-12T20:30:36.440Z,18.95
2023-01-12T20:35:35.569Z,15.65
2023-01-12T20:38:08.191Z,11.73
2023-01-12T20:40:38.341Z,10.95
2023-01-12T20:43:06.155Z,12.23
2023-01-12T20:45:34.165Z,11.32
2023-01-12T20:48:01.876Z,10.25
2023-01-12T20:50:29.654Z,12.63
2023-01-12T20:52:57.723Z,11.38
2023-01-12T20:55:25.927Z,11.43
2023-01-12T20:57:53.812Z,15.85
2023-01-12T21:00:22.226Z,20.90
2023-01-12T21:02:50.198Z,29.83
2023-01-12T21:05:18.117Z,31.67
2023-01-12T21:07:48.668Z,19.83
2023-01-12T21:10:18.414Z,15.27
2023-01-12T21:12:47.773Z,16.83
2023-01-12T21:15:18.256Z,12.40
2023-01-12T21:17:46.173Z,13.48
2023-01-12T21:20:14.955Z,9.32
2023-01-12T21:22:43.996Z,11.07
2023-01-12T21:25:11.972Z,12.15
2023-01-12T21:27:40.021Z,12.70
2023-01-12T21:30:08.596Z,9.32
2023-01-12T21:32:36.301Z,6.60
2023-01-12T21:35:04.585Z,7.93
2023-01-12T21:37:32.408Z,7.45
2023-01-12T21:40:00.199Z,7.93
2023-01-12T21:42:47.107Z,7.75
2023-01-12T21:45:14.940Z,9.90
2023-01-12T21:47:42.707Z,6.80
2023-01-12T21:50:11.131Z,5.97
2023-01-12T21:52:41.758Z,6.32
2023-01-12T21:55:12.571Z,6.28
2023-01-12T21:57:42.132Z,7.72
2023-01-12T22:00:10.664Z,9.95
2023-01-12T22:02:43.152Z,6.55
2023-01-12T22:05:11.685Z,6.90
2023-01-12T22:07:42.802Z,7.35
2023-01-12T22:10:19.873Z,8.15
2023-01-12T22:12:50.648Z,8.00
2023-01-12T22:15:18.827Z,6.72
2023-01-12T22:17:47.567Z,9.80
2023-01-12T22:20:18.800Z,14.02
2023-01-12T22:22:47.049Z,19.98
2023-01-12T22:25:16.224Z,16.02
2023-01-12T22:27:44.557Z,13.52
2023-01-12T22:30:15.659Z,13.18
2023-01-12T22:32:44.189Z,12.60
2023-01-12T22:35:12.812Z,13.23
2023-01-12T22:37:41.521Z,13.13
2023-01-12T22:40:11.300Z,17.13
2023-01-12T22:42:57.799Z,11.55
2023-01-12T22:45:25.778Z,12.95
2023-01-12T22:47:55.012Z,13.38
2023-01-12T22:50:23.888Z,9.30
2023-01-12T22:52:54.858Z,10.73
2023-01-12T22:55:24.491Z,8.85
2023-01-12T22:57:52.668Z,9.48
2023-01-12T23:00:21.486Z,12.48
2023-01-12T23:03:01.731Z,10.80
2023-01-12T23:05:36.311Z,10.40
2023-01-12T23:08:06.388Z,10.10
2023-01-12T23:10:35.165Z,7.82
2023-01-12T23:13:14.059Z,9.30
2023-01-12T23:15:55.744Z,8.35
2023-01-12T23:18:29.348Z,9.05
2023-01-12T23:21:16.827Z,7.63
2023-01-12T23:23:52.962Z,6.80
2023-01-12T23:26:23.405Z,5.53
2023-01-12T23:28:56.138Z,6.20
2023-01-12T23:31:26.285Z,6.82
2023-01-12T23:33:54.248Z,7.32
2023-01-12T23:36:24.385Z,6.57
2023-01-12T23:38:56.321Z,6.18
2023-01-12T23:41:26.872Z,6.32
2023-01-12T23:43:57.832Z,6.15
2023-01-12T23:46:26.645Z,4.95
2023-01-12T23:48:56.291Z,5.18
2023-01-12T23:51:26.100Z,5.28
2023-01-12T23:53:59.655Z,4.82
2023-01-12T23:56:33.056Z,5.63
2023-01-12T23:59:01.251Z,5.90
